createdAt,value
2023-02-13T00:01:21.932Z,7.20
2023-02-13T00:03:49.245Z,7.20
2023-02-13T00:06:17.422Z,7.10
2023-02-13T00:08:45.898Z,7.10
2023-02-13T00:11:15.777Z,7.00
2023-02-13T00:13:47.879Z,7.00
2023-02-13T00:16:14.969Z,6.90
2023-02-13T00:18:51.420Z,6.90
2023-02-13T00:21:21.451Z,7.00
2023-02-13T00:23:50.670Z,7.00
2023-02-13T00:26:21.547Z,7.10
2023-02-13T00:28:49.010Z,7.00
2023-02-13T00:31:21.311Z,6.90
2023-02-13T00:33:50.573Z,6.80
2023-02-13T00:36:22.324Z,6.90
2023-02-13T00:38:52.286Z,6.90
2023-02-13T00:41:22.252Z,6.90
2023-02-13T00:43:56.585Z,7.00
2023-02-13T00:46:44.605Z,6.90
2023-02-13T00:49:14.041Z,7.00
2023-02-13T00:51:41.461Z,7.00
2023-02-13T00:54:09.515Z,6.90
2023-02-13T00:56:47.821Z,7.10
2023-02-13T00:59:18.648Z,7.00
2023-02-13T01:01:55.668Z,7.00
2023-02-13T01:12:37.966Z,6.90
2023-02-13T01:15:10.702Z,6.90
2023-02-13T01:17:40.362Z,6.80
2023-02-13T01:20:10.866Z,6.90
2023-02-13T01:22:39.106Z,6.90
2023-02-13T01:25:12.594Z,6.80
2023-02-13T01:27:39.739Z,6.80
2023-02-13T01:30:13.666Z,6.80
2023-02-13T01:32:41.612Z,6.80
2023-02-13T01:35:10.336Z,6.80
2023-02-13T01:37:41.133Z,6.70
2023-02-13T01:40:13.803Z,6.60
2023-02-13T01:42:41.297Z,6.60
2023-02-13T01:45:23.982Z,6.50
2023-02-13T01:48:37.961Z,6.40
2023-02-13T01:51:23.991Z,6.40
2023-02-13T01:54:04.693Z,6.40
2023-02-13T01:56:48.185Z,6.40
2023-02-13T01:59:29.829Z,6.30
2023-02-13T02:02:02.750Z,6.30
2023-02-13T02:04:39.653Z,6.40
2023-02-13T02:07:24.732Z,6.50
2023-02-13T02:09:58.794Z,6.50
2023-02-13T02:12:50.078Z,6.50
2023-02-13T02:15:21.490Z,6.30
2023-02-13T02:17:49.817Z,6.30
2023-02-13T02:20:35.481Z,6.30
2023-02-13T02:23:32.890Z,6.20
2023-02-13T02:27:00.654Z,6.20
2023-02-13T02:29:56.666Z,6.10
2023-02-13T02:33:01.525Z,6.00
2023-02-13T02:35:56.092Z,6.00
2023-02-13T02:38:58.390Z,6.00
2023-02-13T02:41:44.857Z,5.90
2023-02-13T02:44:25.013Z,5.90
2023-02-13T02:47:30.241Z,6.00
2023-02-13T02:50:35.032Z,6.00
2023-02-13T02:53:28.390Z,6.00
2023-02-13T02:56:20.584Z,5.90
2023-02-13T02:59:15.894Z,5.80
2023-02-13T03:02:04.233Z,5.70
2023-02-13T03:04:55.051Z,5.80
2023-02-13T03:07:23.677Z,5.70
2023-02-13T03:10:14.810Z,5.80
2023-02-13T03:13:05.343Z,5.80
2023-02-13T03:15:57.241Z,5.90
2023-02-13T03:18:43.220Z,5.90
2023-02-13T03:21:38.597Z,6.00
2023-02-13T03:24:28.188Z,6.00
2023-02-13T03:27:46.954Z,6.10
2023-02-13T03:30:41.024Z,6.10
2023-02-13T03:33:30.219Z,6.10
2023-02-13T03:37:04.946Z,6.10
2023-02-13T03:39:53.989Z,6.00
2023-02-13T03:42:23.853Z,6.00
2023-02-13T03:45:20.928Z,6.00
2023-02-13T03:47:55.388Z,6.00
2023-02-13T03:50:27.899Z,6.10
2023-02-13T03:53:00.523Z,6.00
2023-02-13T03:55:51.748Z,6.10
2023-02-13T03:58:45.936Z,6.00
2023-02-13T04:01:17.080Z,5.90
2023-02-13T04:04:32.126Z,5.80
2023-02-13T04:07:32.444Z,5.70
2023-02-13T04:10:12.722Z,5.80
2023-02-13T04:12:43.715Z,5.90
2023-02-13T04:15:22.052Z,5.90
2023-02-13T04:17:58.798Z,5.90
2023-02-13T04:20:32.622Z,5.90
2023-02-13T04:23:06.719Z,6.00
2023-02-13T04:25:35.309Z,6.00
2023-02-13T04:28:03.746Z,6.00
2023-02-13T04:30:31.149Z,6.00
2023-02-13T04:32:59.356Z,6.00
2023-02-13T04:35:28.333Z,6.10
2023-02-13T04:37:56.862Z,6.00
2023-02-13T04:40:25.304Z,6.00
2023-02-13T04:42:52.274Z,6.00
2023-02-13T04:45:20.705Z,6.10
2023-02-13T04:47:56.652Z,6.10
2023-02-13T04:50:24.883Z,6.00
2023-02-13T04:53:00.732Z,6.00
2023-02-13T04:55:28.480Z,6.00
2023-02-13T04:57:57.020Z,5.90
2023-02-13T05:00:26.634Z,5.90
2023-02-13T05:03:04.724Z,5.90
2023-02-13T05:05:35.737Z,5.90
2023-02-13T05:08:03.560Z,5.80
2023-02-13T05:10:34.898Z,5.80
2023-02-13T05:13:03.827Z,5.80
2023-02-13T05:15:32.006Z,5.80
2023-02-13T05:18:00.390Z,5.90
2023-02-13T05:20:28.118Z,6.00
2023-02-13T05:23:13.820Z,5.90
2023-02-13T05:25:42.916Z,6.00
2023-02-13T05:28:29.429Z,6.00
2023-02-13T05:30:58.209Z,6.00
2023-02-13T05:33:25.748Z,6.00
2023-02-13T05:35:54.382Z,6.00
2023-02-13T05:38:23.644Z,6.00
2023-02-13T05:40:50.697Z,6.00
2023-02-13T05:43:19.935Z,5.90
2023-02-13T05:45:48.301Z,5.80
2023-02-13T05:48:15.255Z,5.60
2023-02-13T05:50:42.137Z,5.60
2023-02-13T05:53:09.580Z,5.50
2023-02-13T05:55:36.673Z,5.50
2023-02-13T05:58:03.537Z,5.40
2023-02-13T06:00:32.423Z,5.40
2023-02-13T06:02:59.316Z,5.50
2023-02-13T06:05:26.313Z,5.60
2023-02-13T06:07:57.410Z,5.70
2023-02-13T06:14:52.286Z,5.50
2023-02-13T06:17:19.282Z,5.50
2023-02-13T06:19:47.578Z,5.50
2023-02-13T06:22:15.616Z,5.40
2023-02-13T06:24:42.787Z,5.40
2023-02-13T06:27:25.112Z,5.40
2023-02-13T06:30:01.763Z,5.40
2023-02-13T06:32:28.667Z,5.50
2023-02-13T06:34:55.764Z,5.50
2023-02-13T06:37:24.281Z,5.40
2023-02-13T06:39:51.498Z,5.40
2023-02-13T06:42:18.970Z,5.20
2023-02-13T06:44:46.989Z,5.00
2023-02-13T06:47:20.105Z,5.00
2023-02-13T06:49:48.126Z,5.10
2023-02-13T06:52:15.162Z,5.20
2023-02-13T06:54:47.693Z,5.20
2023-02-13T06:57:16.518Z,5.10
2023-02-13T06:59:44.083Z,5.10
2023-02-13T07:02:16.480Z,5.20
2023-02-13T07:04:43.394Z,5.30
2023-02-13T07:07:10.342Z,5.30
2023-02-13T07:09:38.472Z,5.40
2023-02-13T07:12:05.813Z,5.30
2023-02-13T07:14:35.212Z,5.40
2023-02-13T07:17:02.207Z,5.50
2023-02-13T07:19:30.664Z,5.50
2023-02-13T07:21:58.792Z,5.50
2023-02-13T07:24:26.239Z,5.40
2023-02-13T07:26:54.325Z,5.40
2023-02-13T07:29:21.306Z,5.50
2023-02-13T07:31:48.203Z,5.60
2023-02-13T07:34:15.285Z,5.50
2023-02-13T07:36:42.266Z,5.60
2023-02-13T07:39:09.730Z,5.70
2023-02-13T07:41:40.444Z,5.70
2023-02-13T07:44:08.047Z,5.70
2023-02-13T07:46:36.463Z,5.80
2023-02-13T07:49:03.886Z,5.80
2023-02-13T07:51:31.907Z,5.80
2023-02-13T07:54:01.381Z,5.80
2023-02-13T07:56:30.377Z,5.90
2023-02-13T07:58:57.292Z,5.90
2023-02-13T08:01:24.310Z,5.90
2023-02-13T08:03:53.534Z,5.80
2023-02-13T08:06:22.857Z,5.70
2023-02-13T08:09:09.828Z,5.70
2023-02-13T08:11:55.365Z,5.70
2023-02-13T08:14:24.377Z,5.70
2023-02-13T08:16:55.587Z,5.70
2023-02-13T08:19:23.652Z,5.80
2023-02-13T08:21:54.603Z,5.90
2023-02-13T08:24:21.888Z,6.20
2023-02-13T08:26:50.879Z,6.20
2023-02-13T08:29:18.884Z,6.20
2023-02-13T08:31:47.921Z,6.30
2023-02-13T08:34:15.918Z,6.40
2023-02-13T08:36:48.039Z,6.50
2023-02-13T08:39:15.009Z,6.50
2023-02-13T08:41:43.573Z,6.70
2023-02-13T08:44:12.061Z,6.70
2023-02-13T08:46:40.121Z,6.80
2023-02-13T08:49:09.517Z,6.80
2023-02-13T08:51:37.616Z,6.90
2023-02-13T08:54:06.824Z,7.00
2023-02-13T08:56:35.851Z,7.10
2023-02-13T08:59:05.196Z,7.20
2023-02-13T09:01:33.524Z,7.30
2023-02-13T09:04:00.847Z,7.40
2023-02-13T09:06:30.657Z,7.50
2023-02-13T09:08:57.815Z,7.60
2023-02-13T09:11:30.546Z,7.70
2023-02-13T09:13:57.785Z,7.80
2023-02-13T09:16:24.724Z,7.80
2023-02-13T09:18:52.546Z,7.80
2023-02-13T09:21:23.730Z,7.80
2023-02-13T09:23:55.419Z,7.90
2023-02-13T09:26:24.741Z,7.90
2023-02-13T09:28:52.942Z,8.00
2023-02-13T09:31:21.571Z,8.10
2023-02-13T09:33:50.373Z,8.10
2023-02-13T09:36:20.845Z,8.30
2023-02-13T09:38:52.021Z,8.50
2023-02-13T09:41:23.931Z,8.60
2023-02-13T09:44:04.669Z,8.70
2023-02-13T09:46:39.482Z,8.70
2023-02-13T09:49:23.474Z,8.70
2023-02-13T09:51:56.572Z,8.80
2023-02-13T09:54:25.806Z,8.90
2023-02-13T09:57:03.197Z,9.00
2023-02-13T09:59:58.273Z,9.10
2023-02-13T10:02:25.560Z,9.20
2023-02-13T10:05:07.226Z,9.30
2023-02-13T10:07:49.777Z,9.40
2023-02-13T10:10:58.814Z,9.50
2023-02-13T10:13:41.555Z,9.50
2023-02-13T10:16:42.224Z,9.60
2023-02-13T10:19:27.730Z,9.60
2023-02-13T10:22:09.532Z,9.60
2023-02-13T10:24:56.011Z,9.70
2023-02-13T10:27:46.901Z,9.60
2023-02-13T10:30:55.140Z,9.70
2023-02-13T10:33:30.248Z,9.90
2023-02-13T10:36:20.983Z,10.10
2023-02-13T10:39:22.172Z,10.10
2023-02-13T10:41:53.826Z,10.20
2023-02-13T10:44:31.119Z,10.20
2023-02-13T10:47:12.397Z,10.10
2023-02-13T10:49:54.011Z,10.00
2023-02-13T10:53:00.410Z,10.00
2023-02-13T10:55:54.339Z,10.10
2023-02-13T10:58:27.374Z,10.40
2023-02-13T11:00:54.679Z,10.80
2023-02-13T11:03:30.863Z,11.60
2023-02-13T11:06:02.918Z,12.60
2023-02-13T11:08:43.769Z,13.60
2023-02-13T11:11:31.615Z,14.70
2023-02-13T11:14:17.535Z,15.50
2023-02-13T11:17:01.729Z,16.40
2023-02-13T11:19:50.513Z,17.10
2023-02-13T11:22:33.540Z,16.50
2023-02-13T11:25:05.073Z,15.90
2023-02-13T11:27:42.331Z,16.70
2023-02-13T11:30:40.150Z,17.00
2023-02-13T11:33:23.502Z,18.10
2023-02-13T11:36:09.709Z,18.20
2023-02-13T11:38:39.000Z,19.00
2023-02-13T11:41:14.208Z,19.60
2023-02-13T11:43:54.887Z,20.20
2023-02-13T11:46:23.318Z,19.50
2023-02-13T11:48:59.895Z,20.00
2023-02-13T11:51:40.769Z,20.00
2023-02-13T11:54:29.728Z,20.30
2023-02-13T11:57:06.794Z,20.10
2023-02-13T11:59:41.503Z,20.60
2023-02-13T12:02:30.940Z,19.00
2023-02-13T12:05:27.121Z,18.60
2023-02-13T12:08:01.660Z,17.70
2023-02-13T12:10:31.983Z,18.00
2023-02-13T12:13:09.486Z,17.20
2023-02-13T12:15:37.518Z,18.20
2023-02-13T12:18:21.349Z,17.30
2023-02-13T12:20:54.124Z,16.90
2023-02-13T12:23:43.311Z,16.80
2023-02-13T12:26:48.704Z,16.90
2023-02-13T12:29:35.013Z,17.80
2023-02-13T12:32:22.892Z,18.50
2023-02-13T12:35:09.000Z,18.60
2023-02-13T12:37:47.112Z,17.80
2023-02-13T12:40:36.774Z,17.60
2023-02-13T12:43:37.792Z,17.10
2023-02-13T12:46:30.014Z,16.90
2023-02-13T12:49:27.000Z,16.80
2023-02-13T12:52:15.357Z,17.50
2023-02-13T12:54:52.417Z,19.00
2023-02-13T12:57:39.345Z,20.30
2023-02-13T13:00:46.126Z,20.70
2023-02-13T13:03:54.328Z,21.30
2023-02-13T13:06:50.289Z,20.80
2023-02-13T13:12:51.843Z,17.40
2023-02-13T13:15:40.826Z,17.00
2023-02-13T13:18:49.471Z,16.60
2023-02-13T13:21:34.946Z,15.50
2023-02-13T13:24:35.315Z,14.80
2023-02-13T13:27:04.981Z,14.50
2023-02-13T13:29:54.728Z,14.10
2023-02-13T13:32:23.036Z,14.10
2023-02-13T13:34:52.048Z,14.00
2023-02-13T13:38:09.569Z,13.60
2023-02-13T13:41:13.318Z,13.50
2023-02-13T13:44:06.505Z,13.40
2023-02-13T13:46:57.012Z,13.30
2023-02-13T13:50:03.064Z,13.30
2023-02-13T13:52:37.592Z,13.40
2023-02-13T13:55:07.260Z,13.40
2023-02-13T13:57:41.528Z,13.30
2023-02-13T14:00:14.528Z,13.20
2023-02-13T14:03:13.573Z,13.10
2023-02-13T14:06:10.884Z,13.40
2023-02-13T14:08:48.488Z,13.50
2023-02-13T14:11:53.741Z,13.40
2023-02-13T14:14:28.814Z,13.50
2023-02-13T14:17:18.612Z,13.60
2023-02-13T14:19:54.237Z,13.70
2023-02-13T14:22:38.541Z,13.60
2023-02-13T14:25:23.303Z,13.40
2023-02-13T14:27:59.836Z,13.40
2023-02-13T14:30:34.623Z,13.40
2023-02-13T14:33:08.380Z,13.30
2023-02-13T14:36:09.380Z,13.30
2023-02-13T14:38:39.780Z,13.30
2023-02-13T14:46:32.427Z,13.40
2023-02-13T14:49:28.616Z,13.50
2023-02-13T14:52:06.393Z,13.50
2023-02-13T14:54:45.692Z,13.50
2023-02-13T14:57:37.699Z,13.50
2023-02-13T15:00:32.022Z,13.40
2023-02-13T15:03:06.604Z,13.50
2023-02-13T15:05:35.166Z,13.50
2023-02-13T15:08:14.373Z,13.40
2023-02-13T15:10:57.107Z,13.30
2023-02-13T15:13:37.937Z,13.30
2023-02-13T15:16:12.871Z,13.20
2023-02-13T15:18:52.760Z,13.20
2023-02-13T15:21:22.161Z,13.30
2023-02-13T15:23:57.303Z,13.50
2023-02-13T15:26:28.603Z,13.60
2023-02-13T15:29:25.869Z,13.60
2023-02-13T15:31:58.814Z,13.50
2023-02-13T15:34:35.765Z,13.40
2023-02-13T15:37:06.314Z,13.40
2023-02-13T15:39:33.626Z,13.40
2023-02-13T15:42:05.257Z,13.40
2023-02-13T15:45:00.592Z,13.30
2023-02-13T15:47:44.981Z,13.40
2023-02-13T15:50:51.758Z,13.40
2023-02-13T15:53:28.728Z,13.30
2023-02-13T15:56:00.559Z,13.30
2023-02-13T15:58:53.042Z,13.30
2023-02-13T16:01:23.952Z,13.30
2023-02-13T16:04:19.882Z,13.30
2023-02-13T16:06:51.468Z,13.20
2023-02-13T16:09:34.081Z,13.20
2023-02-13T16:12:17.840Z,13.20
2023-02-13T16:15:13.134Z,13.20
2023-02-13T16:17:52.728Z,13.20
2023-02-13T16:20:31.059Z,13.20
2023-02-13T16:23:21.175Z,13.20
2023-02-13T16:25:51.081Z,13.20
2023-02-13T16:28:25.993Z,13.20
2023-02-13T16:31:05.203Z,13.20
2023-02-13T16:34:01.239Z,13.10
2023-02-13T16:36:34.735Z,13.00
2023-02-13T16:39:18.416Z,13.00
2023-02-13T16:41:48.028Z,12.90
2023-02-13T16:44:25.946Z,12.90
2023-02-13T16:47:07.069Z,12.80
2023-02-13T16:49:36.358Z,12.80
2023-02-13T16:52:26.951Z,12.70
2023-02-13T16:55:00.509Z,12.60
2023-02-13T16:57:35.350Z,12.50
2023-02-13T17:00:28.017Z,12.50
2023-02-13T17:03:11.834Z,12.50
2023-02-13T17:05:40.031Z,12.40
2023-02-13T17:08:08.015Z,12.40
2023-02-13T17:10:38.654Z,12.30
2023-02-13T17:13:22.469Z,12.30
2023-02-13T17:15:49.409Z,12.30
2023-02-13T17:18:19.148Z,12.10
2023-02-13T17:23:32.095Z,12.00
2023-02-13T17:26:00.182Z,12.00
2023-02-13T17:28:30.282Z,11.90
2023-02-13T17:30:59.545Z,11.90
2023-02-13T17:33:31.776Z,11.80
2023-02-13T17:35:58.832Z,11.80
2023-02-13T17:38:27.097Z,11.80
2023-02-13T17:40:54.135Z,11.70
2023-02-13T17:43:21.652Z,11.70
2023-02-13T17:45:52.174Z,11.60
2023-02-13T17:48:20.618Z,11.60
2023-02-13T17:50:52.607Z,11.60
2023-02-13T17:53:30.682Z,11.50
2023-02-13T17:56:01.552Z,11.50
2023-02-13T17:58:28.802Z,11.40
2023-02-13T18:00:56.320Z,11.40
2023-02-13T18:03:24.061Z,11.30
2023-02-13T18:05:55.595Z,11.30
2023-02-13T18:08:23.171Z,11.30
2023-02-13T18:10:52.211Z,11.20
2023-02-13T18:13:20.142Z,11.20
2023-02-13T18:15:49.419Z,11.20
2023-02-13T18:18:17.622Z,11.10
2023-02-13T18:20:46.448Z,11.10
2023-02-13T18:23:14.471Z,11.00
2023-02-13T18:25:41.483Z,10.90
2023-02-13T18:28:08.463Z,10.90
2023-02-13T18:30:37.516Z,10.80
2023-02-13T18:33:05.095Z,10.80
2023-02-13T18:35:33.461Z,10.80
2023-02-13T18:38:03.712Z,10.70
2023-02-13T18:40:32.805Z,10.70
2023-02-13T18:43:02.816Z,10.70
2023-02-13T18:45:45.605Z,10.70
2023-02-13T18:48:17.892Z,10.60
2023-02-13T18:51:02.617Z,10.60
2023-02-13T18:53:48.720Z,10.50
2023-02-13T18:56:40.914Z,10.50
2023-02-13T18:59:20.128Z,10.50
2023-02-13T19:06:29.083Z,10.40
2023-02-13T19:09:06.173Z,10.30
2023-02-13T19:11:41.875Z,10.30
2023-02-13T19:14:14.072Z,10.30
2023-02-13T19:16:44.115Z,10.20
2023-02-13T19:19:16.259Z,10.20
2023-02-13T19:21:49.556Z,10.20
2023-02-13T19:24:16.945Z,10.20
2023-02-13T19:26:45.844Z,10.10
2023-02-13T19:29:13.399Z,10.10
2023-02-13T19:31:41.125Z,10.10
2023-02-13T19:34:09.514Z,10.10
2023-02-13T19:36:36.869Z,10.10
2023-02-13T19:39:06.798Z,10.10
2023-02-13T19:41:33.681Z,10.00
2023-02-13T19:44:03.064Z,10.10
2023-02-13T19:46:32.100Z,10.10
2023-02-13T19:49:01.876Z,10.00
2023-02-13T19:51:52.990Z,10.00
2023-02-13T19:54:24.992Z,10.00
2023-02-13T19:57:02.679Z,10.00
2023-02-13T19:59:35.655Z,9.90
2023-02-13T20:02:03.268Z,9.90
2023-02-13T20:04:32.330Z,9.90
2023-02-13T20:06:59.645Z,9.90
2023-02-13T20:09:27.870Z,9.90
2023-02-13T20:11:54.796Z,9.80
2023-02-13T20:14:22.337Z,9.80
2023-02-13T20:16:49.426Z,9.80
2023-02-13T20:19:20.356Z,9.80
2023-02-13T20:21:47.378Z,9.80
2023-02-13T20:24:14.584Z,9.80
2023-02-13T20:26:42.678Z,9.80
2023-02-13T20:29:10.905Z,9.80
2023-02-13T20:31:41.287Z,9.80
2023-02-13T20:34:09.476Z,9.80
2023-02-13T20:36:37.064Z,9.80
2023-02-13T20:39:05.976Z,9.80
2023-02-13T20:41:35.577Z,9.80
2023-02-13T20:44:05.748Z,9.80
2023-02-13T20:46:36.597Z,9.80
2023-02-13T20:49:05.137Z,9.80
2023-02-13T20:51:39.613Z,9.80
2023-02-13T20:54:06.618Z,9.80
2023-02-13T20:56:35.659Z,9.70
2023-02-13T20:59:05.291Z,9.70
2023-02-13T21:01:35.515Z,9.70
2023-02-13T21:04:33.452Z,9.60
2023-02-13T21:07:01.633Z,9.60
2023-02-13T21:09:32.265Z,9.60
2023-02-13T21:12:00.106Z,9.50
2023-02-13T21:14:27.505Z,9.50
2023-02-13T21:16:54.590Z,9.40
2023-02-13T21:19:22.837Z,9.40
2023-02-13T21:21:49.785Z,9.40
2023-02-13T21:24:19.828Z,9.40
2023-02-13T21:26:49.302Z,9.40
2023-02-13T21:29:17.776Z,9.40
2023-02-13T21:31:49.416Z,9.40
2023-02-13T21:34:17.875Z,9.30
2023-02-13T21:36:46.637Z,9.40
2023-02-13T21:39:14.766Z,9.40
2023-02-13T21:41:46.205Z,9.30
2023-02-13T21:44:14.916Z,9.10
2023-02-13T21:46:43.709Z,9.10
2023-02-13T21:49:15.136Z,9.10
2023-02-13T21:51:42.521Z,9.10
2023-02-13T21:54:11.779Z,9.10
2023-02-13T21:56:40.669Z,9.10
2023-02-13T21:59:09.020Z,9.10
2023-02-13T22:01:46.989Z,9.10
2023-02-13T22:04:14.681Z,9.10
2023-02-13T22:06:46.791Z,9.10
2023-02-13T22:09:16.234Z,9.10
2023-02-13T22:11:44.028Z,9.10
2023-02-13T22:14:17.237Z,9.10
2023-02-13T22:16:45.249Z,9.20
2023-02-13T22:19:16.541Z,9.20
2023-02-13T22:21:44.480Z,9.20
2023-02-13T22:24:12.489Z,9.20
2023-02-13T22:26:45.190Z,9.20
2023-02-13T22:29:16.150Z,9.10
2023-02-13T22:31:47.178Z,9.10
2023-02-13T22:34:16.067Z,9.10
2023-02-13T22:36:44.098Z,9.10
2023-02-13T22:39:15.438Z,9.00
2023-02-13T22:41:45.666Z,9.10
2023-02-13T22:44:12.658Z,9.10
2023-02-13T22:46:39.680Z,9.10
2023-02-13T22:49:15.048Z,9.00
2023-02-13T22:51:41.945Z,9.00
2023-02-13T22:54:10.791Z,9.00
2023-02-13T22:56:37.778Z,9.10
2023-02-13T22:59:04.569Z,9.00
2023-02-13T23:01:33.946Z,9.00
2023-02-13T23:04:00.872Z,8.90
2023-02-13T23:06:28.688Z,8.80
2023-02-13T23:08:56.103Z,8.80
2023-02-13T23:11:45.334Z,8.80
2023-02-13T23:14:15.030Z,8.70
2023-02-13T23:17:02.394Z,8.70
2023-02-13T23:19:33.201Z,8.70
2023-02-13T23:22:00.235Z,8.70
2023-02-13T23:24:28.490Z,8.70
2023-02-13T23:26:56.632Z,8.60
2023-02-13T23:29:24.861Z,8.60
2023-02-13T23:31:52.936Z,8.60
2023-02-13T23:34:24.969Z,8.50
2023-02-13T23:36:52.498Z,8.50
2023-02-13T23:39:20.260Z,8.50
2023-02-13T23:41:48.708Z,8.50
2023-02-13T23:44:16.562Z,8.50
2023-02-13T23:46:44.809Z,8.50
2023-02-13T23:49:19.546Z,8.50
2023-02-13T23:51:47.193Z,8.50
2023-02-13T23:54:21.040Z,8.50
2023-02-13T23:56:50.604Z,8.40
2023-02-13T23:59:19.082Z,8.40
